createdAt,value
2022-08-14T00:00:48.371Z,6.60
2022-08-14T00:01:55.178Z,8.80
2022-08-14T00:02:57.283Z,7.00
2022-08-14T00:04:01.721Z,8.30
2022-08-14T00:05:06.165Z,7.30
2022-08-14T00:06:13.914Z,6.60
2022-08-14T00:07:15.072Z,7.80
2022-08-14T00:08:43.768Z,7.30
2022-08-14T00:09:23.960Z,7.40
2022-08-14T00:10:52.245Z,7.40
2022-08-14T00:11:33.653Z,7.70
2022-08-14T00:12:39.327Z,7.80
2022-08-14T00:13:42.554Z,7.00
2022-08-14T00:14:46.984Z,8.00
2022-08-14T00:15:51.436Z,7.50
2022-08-14T00:16:56.142Z,9.90
2022-08-14T00:18:00.682Z,6.90
2022-08-14T00:19:06.077Z,8.70
2022-08-14T00:20:09.565Z,6.90
2022-08-14T00:21:14.024Z,7.10
2022-08-14T00:22:44.676Z,7.00
2022-08-14T00:23:22.936Z,7.20
2022-08-14T00:24:28.941Z,7.00
2022-08-14T00:25:41.623Z,7.00
2022-08-14T00:26:36.306Z,9.60
2022-08-14T00:27:40.757Z,7.00
2022-08-14T00:28:45.215Z,7.60
2022-08-14T00:29:49.657Z,7.30
2022-08-14T00:30:54.114Z,7.20
2022-08-14T00:31:58.577Z,8.70
2022-08-14T00:33:16.212Z,9.00
2022-08-14T00:34:37.634Z,7.80
2022-08-14T00:35:12.637Z,6.90
2022-08-14T00:36:35.224Z,7.30
2022-08-14T00:37:20.870Z,7.80
2022-08-14T00:38:25.327Z,7.00
2022-08-14T00:39:29.838Z,8.90
2022-08-14T00:40:35.716Z,7.70
2022-08-14T00:41:38.817Z,9.00
2022-08-14T00:42:55.104Z,6.70
2022-08-14T00:43:47.629Z,10.70
2022-08-14T00:44:52.089Z,6.60
2022-08-14T00:45:56.529Z,9.40
2022-08-14T00:47:01.074Z,7.30
2022-08-14T00:48:05.440Z,10.00
2022-08-14T00:49:11.517Z,7.50
2022-08-14T00:50:17.789Z,7.50
2022-08-14T00:51:18.791Z,8.50
2022-08-14T00:52:23.256Z,9.20
2022-08-14T00:53:27.701Z,9.20
2022-08-14T00:54:32.159Z,7.40
2022-08-14T00:55:36.630Z,7.70
2022-08-14T00:56:41.081Z,7.20
2022-08-14T00:57:45.551Z,6.90
2022-08-14T00:58:49.993Z,7.10
2022-08-14T00:59:54.692Z,7.50
2022-08-14T01:00:59.175Z,9.60
2022-08-14T01:02:04.259Z,8.50
2022-08-14T01:03:08.322Z,8.40
2022-08-14T01:04:37.312Z,7.00
2022-08-14T01:05:17.212Z,7.20
2022-08-14T01:06:21.672Z,7.10
2022-08-14T01:07:27.262Z,8.20
2022-08-14T01:08:51.626Z,7.10
2022-08-14T01:09:35.063Z,7.00
2022-08-14T01:10:40.323Z,8.00
2022-08-14T01:11:45.137Z,8.20
2022-08-14T01:12:48.453Z,8.40
2022-08-14T01:14:01.206Z,8.90
2022-08-14T01:14:58.173Z,8.00
2022-08-14T01:16:02.936Z,7.40
2022-08-14T01:17:08.927Z,7.30
2022-08-14T01:18:10.742Z,7.50
2022-08-14T01:19:15.196Z,7.40
2022-08-14T01:20:27.257Z,7.30
2022-08-14T01:21:24.376Z,9.00
2022-08-14T01:22:29.547Z,7.80
2022-08-14T01:23:46.599Z,7.80
2022-08-14T01:24:37.725Z,9.70
2022-08-14T01:25:42.197Z,8.40
2022-08-14T01:26:47.455Z,10.10
2022-08-14T01:27:56.797Z,11.20
2022-08-14T01:28:57.647Z,8.90
2022-08-14T01:30:03.595Z,7.60
2022-08-14T01:31:04.454Z,7.10
2022-08-14T01:32:10.483Z,7.60
2022-08-14T01:33:13.397Z,8.60
2022-08-14T01:35:18.066Z,8.10
2022-08-14T01:36:03.056Z,7.40
2022-08-14T01:36:26.788Z,9.50
2022-08-14T01:37:31.616Z,6.80
2022-08-14T01:38:37.315Z,8.60
2022-08-14T01:39:40.177Z,8.00
2022-08-14T01:40:44.617Z,7.40
2022-08-14T01:41:49.067Z,8.20
2022-08-14T01:42:53.539Z,7.50
2022-08-14T01:43:58.008Z,9.00
2022-08-14T01:45:02.459Z,7.50
2022-08-14T01:46:07.194Z,9.10
2022-08-14T01:47:11.654Z,9.00
2022-08-14T01:48:15.861Z,7.80
2022-08-14T01:49:20.310Z,7.10
2022-08-14T01:50:26.560Z,7.40
2022-08-14T01:51:29.212Z,7.90
2022-08-14T01:52:58.511Z,8.30
2022-08-14T01:53:38.141Z,8.00
2022-08-14T01:54:42.609Z,7.60
2022-08-14T01:55:47.071Z,7.20
2022-08-14T01:56:55.638Z,6.90
2022-08-14T01:58:18.205Z,7.40
2022-08-14T01:59:00.453Z,8.60
2022-08-14T02:00:04.901Z,9.80
2022-08-14T02:01:09.399Z,8.60
2022-08-14T02:02:19.049Z,7.60
2022-08-14T02:03:18.312Z,8.60
2022-08-14T02:04:55.711Z,8.60
2022-08-14T02:05:27.205Z,8.60
2022-08-14T02:06:32.109Z,8.50
2022-08-14T02:07:53.496Z,7.50
2022-08-14T02:08:52.635Z,8.00
2022-08-14T02:09:45.061Z,9.60
2022-08-14T02:10:49.512Z,8.20
2022-08-14T02:11:54.650Z,8.40
2022-08-14T02:12:59.453Z,9.20
2022-08-14T02:14:07.330Z,7.60
2022-08-14T02:15:07.324Z,9.50
2022-08-14T02:16:13.472Z,9.00
2022-08-14T02:17:16.225Z,8.30
2022-08-14T02:18:20.694Z,8.80
2022-08-14T02:19:25.170Z,8.80
2022-08-14T02:20:29.621Z,7.70
2022-08-14T02:21:39.567Z,9.40
2022-08-14T02:22:47.603Z,8.00
2022-08-14T02:23:43.002Z,9.40
2022-08-14T02:24:47.881Z,9.40
2022-08-14T02:25:54.557Z,7.70
2022-08-14T02:26:58.357Z,9.30
2022-08-14T02:28:23.956Z,9.10
2022-08-14T02:29:05.289Z,8.90
2022-08-14T02:30:09.735Z,8.20
2022-08-14T02:31:14.879Z,10.30
2022-08-14T02:32:29.950Z,8.60
2022-08-14T02:33:23.085Z,11.10
2022-08-14T02:34:27.717Z,7.40
2022-08-14T02:35:32.891Z,8.00
2022-08-14T02:37:02.577Z,12.70
2022-08-14T02:37:47.899Z,9.90
2022-08-14T02:38:45.365Z,9.10
2022-08-14T02:39:49.844Z,8.40
2022-08-14T02:40:54.275Z,7.60
2022-08-14T02:41:58.727Z,10.90
2022-08-14T02:43:03.849Z,9.10
2022-08-14T02:44:07.657Z,8.60
2022-08-14T02:45:12.098Z,7.40
2022-08-14T02:46:20.094Z,9.80
2022-08-14T02:47:21.359Z,9.30
2022-08-14T02:49:03.722Z,9.60
2022-08-14T02:49:34.056Z,9.20
2022-08-14T02:50:34.349Z,9.10
2022-08-14T02:51:38.818Z,8.30
2022-08-14T02:52:57.172Z,10.00
2022-08-14T02:53:47.830Z,10.40
2022-08-14T02:54:52.259Z,8.00
2022-08-14T02:55:56.717Z,9.40
2022-08-14T02:57:15.530Z,8.20
2022-08-14T02:58:06.021Z,8.30
2022-08-14T02:59:10.090Z,9.40
2022-08-14T03:00:18.589Z,11.40
2022-08-14T03:01:19.081Z,9.30
2022-08-14T03:02:48.977Z,9.30
2022-08-14T03:03:27.918Z,8.70
2022-08-14T03:04:32.393Z,8.90
2022-08-14T03:05:37.057Z,8.80
2022-08-14T03:06:57.820Z,11.90
2022-08-14T03:07:45.771Z,8.60
2022-08-14T03:08:50.220Z,7.90
2022-08-14T03:10:25.998Z,10.10
2022-08-14T03:10:59.152Z,8.50
2022-08-14T03:12:04.896Z,8.10
2022-08-14T03:13:13.678Z,8.30
2022-08-14T03:14:12.550Z,10.90
2022-08-14T03:15:19.205Z,10.30
2022-08-14T03:16:26.792Z,12.30
2022-08-14T03:17:25.983Z,9.30
2022-08-14T03:18:30.722Z,8.70
2022-08-14T03:19:34.906Z,10.60
2022-08-14T03:20:39.365Z,9.10
2022-08-14T03:21:43.812Z,8.80
2022-08-14T03:22:50.872Z,8.30
2022-08-14T03:23:52.743Z,9.40
2022-08-14T03:24:57.233Z,9.10
2022-08-14T03:26:01.683Z,9.20
2022-08-14T03:27:06.130Z,8.90
2022-08-14T03:28:14.327Z,10.20
2022-08-14T03:29:15.042Z,8.60
2022-08-14T03:30:23.403Z,8.30
2022-08-14T03:31:26.032Z,10.10
2022-08-14T03:32:30.519Z,9.80
2022-08-14T03:33:37.861Z,10.10
2022-08-14T03:34:47.728Z,9.30
2022-08-14T03:36:00.400Z,8.60
2022-08-14T03:37:37.445Z,10.40
2022-08-14T03:39:10.653Z,9.70
2022-08-14T03:39:14.676Z,8.50
2022-08-14T03:40:00.401Z,9.10
2022-08-14T03:41:04.129Z,8.40
2022-08-14T03:42:19.344Z,9.60
2022-08-14T03:43:13.327Z,8.50
2022-08-14T03:45:25.973Z,9.70
2022-08-14T03:45:35.117Z,9.40
2022-08-14T03:46:38.955Z,9.80
2022-08-14T03:47:46.168Z,8.10
2022-08-14T03:48:38.089Z,10.30
2022-08-14T03:49:42.294Z,9.40
2022-08-14T03:50:44.848Z,10.90
2022-08-14T03:51:49.318Z,10.60
2022-08-14T03:52:55.954Z,8.40
2022-08-14T03:53:58.231Z,8.50
2022-08-14T03:55:02.727Z,9.40
2022-08-14T03:56:07.157Z,10.10
2022-08-14T03:57:11.618Z,9.60
2022-08-14T03:58:23.702Z,8.50
2022-08-14T03:59:20.546Z,8.00
2022-08-14T04:00:44.376Z,8.40
2022-08-14T04:01:38.933Z,10.10
2022-08-14T04:02:37.700Z,9.90
2022-08-14T04:03:38.394Z,9.30
2022-08-14T04:04:42.847Z,8.50
2022-08-14T04:05:48.964Z,8.30
2022-08-14T04:08:30.249Z,10.30
2022-08-14T04:09:22.074Z,9.50
2022-08-14T04:10:32.729Z,8.80
2022-08-14T04:11:30.945Z,10.30
2022-08-14T04:12:35.423Z,8.60
2022-08-14T04:13:39.776Z,10.60
2022-08-14T04:14:44.202Z,12.40
2022-08-14T04:16:01.239Z,9.30
2022-08-14T04:16:53.075Z,9.50
2022-08-14T04:17:57.467Z,9.90
2022-08-14T04:19:01.998Z,10.80
2022-08-14T04:20:06.417Z,9.20
2022-08-14T04:21:10.858Z,8.90
2022-08-14T04:22:16.745Z,9.50
2022-08-14T04:23:23.358Z,10.40
2022-08-14T04:24:25.897Z,8.80
2022-08-14T04:25:28.571Z,9.60
2022-08-14T04:26:42.041Z,10.00
2022-08-14T04:28:01.880Z,10.80
2022-08-14T04:29:07.881Z,8.80
2022-08-14T04:29:46.253Z,8.10
2022-08-14T04:30:50.713Z,9.40
2022-08-14T04:33:04.688Z,8.20
2022-08-14T04:33:10.487Z,7.80
2022-08-14T04:34:04.019Z,11.10
2022-08-14T04:35:10.669Z,9.50
2022-08-14T04:36:16.078Z,8.00
2022-08-14T04:37:22.007Z,8.20
2022-08-14T04:38:36.836Z,9.10
2022-08-14T04:39:26.230Z,8.90
2022-08-14T04:40:30.641Z,8.90
2022-08-14T04:41:35.068Z,8.70
2022-08-14T04:42:39.501Z,8.00
2022-08-14T04:43:43.933Z,9.50
2022-08-14T04:59:52.540Z,8.30
2022-08-14T05:00:56.981Z,9.00
2022-08-14T05:02:01.525Z,8.30
2022-08-14T05:03:07.430Z,9.50
2022-08-14T05:04:14.622Z,8.70
2022-08-14T05:05:14.583Z,8.80
2022-08-14T05:06:37.360Z,9.00
2022-08-14T05:07:46.664Z,10.20
2022-08-14T05:08:31.963Z,8.20
2022-08-14T05:09:32.144Z,8.30
2022-08-14T05:10:37.585Z,8.00
2022-08-14T05:11:40.937Z,10.40
2022-08-14T05:13:13.844Z,8.20
2022-08-14T05:14:54.878Z,9.60
2022-08-14T05:15:58.483Z,7.70
2022-08-14T05:17:02.855Z,9.20
2022-08-14T05:18:17.464Z,11.20
2022-08-14T05:19:18.445Z,8.10
2022-08-14T05:21:55.270Z,9.70
2022-08-14T05:22:00.552Z,8.10
2022-08-14T05:22:24.755Z,8.80
2022-08-14T05:23:29.113Z,10.10
2022-08-14T05:24:33.498Z,10.30
2022-08-14T05:25:37.865Z,8.50
2022-08-14T05:26:42.265Z,8.50
2022-08-14T05:27:46.634Z,10.20
2022-08-14T05:28:51.003Z,8.70
2022-08-14T05:29:57.053Z,8.60
2022-08-14T05:30:59.740Z,9.70
2022-08-14T05:32:04.126Z,9.90
2022-08-14T05:33:08.487Z,8.60
2022-08-14T05:34:12.857Z,8.00
2022-08-14T05:35:17.217Z,8.00
2022-08-14T05:36:21.597Z,8.10
2022-08-14T05:37:25.976Z,10.00
2022-08-14T05:38:31.142Z,10.00
2022-08-14T05:39:34.779Z,8.20
2022-08-14T05:40:39.077Z,9.30
2022-08-14T05:41:53.329Z,7.50
2022-08-14T05:42:52.729Z,8.90
2022-08-14T05:43:52.486Z,9.40
2022-08-14T05:44:56.848Z,9.40
2022-08-14T05:46:01.220Z,8.10
2022-08-14T05:47:05.600Z,7.60
2022-08-14T05:48:09.979Z,7.80
2022-08-14T05:49:14.357Z,8.20
2022-08-14T05:50:19.689Z,8.50
2022-08-14T05:51:23.116Z,9.10
2022-08-14T05:52:39.226Z,8.40
2022-08-14T05:53:33.618Z,8.80
2022-08-14T05:54:36.220Z,7.90
2022-08-14T05:55:42.869Z,8.80
2022-08-14T05:56:44.971Z,8.70
2022-08-14T05:57:49.328Z,9.70
2022-08-14T05:58:53.690Z,9.00
2022-08-14T05:59:58.050Z,8.10
2022-08-14T06:01:02.426Z,9.20
2022-08-14T06:02:06.800Z,8.30
2022-08-14T06:03:11.174Z,10.20
2022-08-14T06:04:15.760Z,8.20
2022-08-14T06:05:23.391Z,7.70
2022-08-14T06:06:24.272Z,7.50
2022-08-14T06:07:28.661Z,8.80
2022-08-14T06:08:41.510Z,8.50
2022-08-14T06:09:40.344Z,7.20
2022-08-14T06:10:41.774Z,8.30
2022-08-14T06:11:49.884Z,9.20
2022-08-14T06:13:00.135Z,9.00
2022-08-14T06:13:54.903Z,8.70
2022-08-14T06:14:59.298Z,7.60
2022-08-14T06:16:03.663Z,8.90
2022-08-14T06:17:08.062Z,8.80
2022-08-14T06:18:12.443Z,8.20
2022-08-14T06:19:18.422Z,8.90
2022-08-14T06:20:22.119Z,7.50
2022-08-14T06:21:26.051Z,7.90
2022-08-14T06:22:29.933Z,9.70
2022-08-14T06:23:34.302Z,9.70
2022-08-14T06:24:38.681Z,7.40
2022-08-14T06:25:43.042Z,9.80
2022-08-14T06:26:54.328Z,7.50
2022-08-14T06:27:52.047Z,8.00
2022-08-14T06:28:56.422Z,9.40
2022-08-14T06:30:00.786Z,7.50
2022-08-14T06:31:05.167Z,8.50
2022-08-14T06:32:38.725Z,7.30
2022-08-14T06:33:15.724Z,7.20
2022-08-14T06:35:04.070Z,7.30
2022-08-14T06:35:22.946Z,8.90
2022-08-14T06:36:27.316Z,9.60
2022-08-14T06:37:31.700Z,8.40
2022-08-14T06:38:36.057Z,9.10
2022-08-14T06:39:40.430Z,10.70
2022-08-14T06:40:45.068Z,10.00
2022-08-14T06:41:57.857Z,10.90
2022-08-14T06:42:53.817Z,7.80
2022-08-14T06:43:58.176Z,9.20
2022-08-14T06:45:02.937Z,7.90
2022-08-14T06:46:06.928Z,7.50
2022-08-14T06:47:11.298Z,7.00
2022-08-14T06:48:17.251Z,8.30
2022-08-14T06:49:20.371Z,8.70
2022-08-14T06:50:28.053Z,8.60
2022-08-14T06:51:44.648Z,8.70
2022-08-14T06:52:33.509Z,9.60
2022-08-14T06:53:37.879Z,8.20
2022-08-14T06:54:42.251Z,8.00
2022-08-14T06:55:56.175Z,8.50
2022-08-14T06:56:54.122Z,7.50
2022-08-14T06:57:55.382Z,7.20
2022-08-14T06:59:00.029Z,7.30
2022-08-14T07:00:04.391Z,9.00
2022-08-14T07:01:08.801Z,8.00
2022-08-14T07:02:17.982Z,7.30
2022-08-14T07:03:17.648Z,8.10
2022-08-14T07:04:23.861Z,9.00
2022-08-14T07:05:26.252Z,9.50
2022-08-14T07:06:46.473Z,8.00
2022-08-14T07:07:35.022Z,8.40
2022-08-14T07:08:39.382Z,7.40
2022-08-14T07:09:51.033Z,7.90
2022-08-14T07:10:48.352Z,8.20
2022-08-14T07:11:52.732Z,8.00
2022-08-14T07:13:03.791Z,7.40
2022-08-14T07:14:01.480Z,9.30
2022-08-14T07:15:05.871Z,7.80
2022-08-14T07:16:10.212Z,7.60
2022-08-14T07:17:14.573Z,8.70
2022-08-14T07:18:18.947Z,8.90
2022-08-14T07:19:23.333Z,9.20
2022-08-14T07:20:31.108Z,6.80
2022-08-14T07:21:32.083Z,8.30
2022-08-14T07:22:56.111Z,8.80
2022-08-14T07:23:44.081Z,7.20
2022-08-14T07:24:45.255Z,8.10
2022-08-14T07:25:51.509Z,8.40
2022-08-14T07:26:54.018Z,7.40
2022-08-14T07:27:58.375Z,9.50
2022-08-14T07:29:02.744Z,7.50
2022-08-14T07:30:09.099Z,8.90
2022-08-14T07:31:11.509Z,7.70
2022-08-14T07:32:20.033Z,8.60
2022-08-14T07:33:20.896Z,7.20
2022-08-14T07:34:36.260Z,7.40
2022-08-14T07:35:30.316Z,7.70
2022-08-14T07:36:33.387Z,7.80
2022-08-14T07:37:37.767Z,9.30
2022-08-14T07:38:42.157Z,8.10
2022-08-14T07:39:46.553Z,9.70
2022-08-14T07:40:52.866Z,10.80
2022-08-14T07:41:55.270Z,7.80
2022-08-14T07:42:59.663Z,7.70
2022-08-14T07:44:28.758Z,7.90
2022-08-14T07:45:08.397Z,8.90
2022-08-14T07:46:12.757Z,7.80
2022-08-14T07:47:17.144Z,7.80
2022-08-14T07:48:25.242Z,10.50
2022-08-14T07:49:25.898Z,7.90
2022-08-14T07:50:34.699Z,11.10
2022-08-14T07:51:36.950Z,7.10
2022-08-14T07:52:39.006Z,7.90
2022-08-14T07:53:43.399Z,7.00
2022-08-14T07:54:47.756Z,8.10
2022-08-14T07:56:00.220Z,8.80
2022-08-14T07:56:56.886Z,7.60
2022-08-14T07:58:01.131Z,7.80
2022-08-14T07:59:05.528Z,8.50
2022-08-14T08:00:09.899Z,8.00
2022-08-14T08:01:14.259Z,9.30
2022-08-14T08:02:20.576Z,8.00
2022-08-14T08:03:23.587Z,7.50
2022-08-14T08:04:27.660Z,7.00
2022-08-14T08:05:32.020Z,7.60
2022-08-14T08:06:36.411Z,7.30
2022-08-14T08:07:40.781Z,7.70
2022-08-14T08:08:45.181Z,8.80
2022-08-14T08:09:49.558Z,9.10
2022-08-14T08:11:01.919Z,7.80
2022-08-14T08:11:58.302Z,7.40
2022-08-14T08:13:02.681Z,8.10
2022-08-14T08:14:10.673Z,7.70
2022-08-14T08:15:11.463Z,7.30
2022-08-14T08:16:15.840Z,7.00
2022-08-14T08:17:20.235Z,9.20
2022-08-14T08:18:29.652Z,6.90
2022-08-14T08:19:28.983Z,9.40
2022-08-14T08:20:33.354Z,7.50
2022-08-14T08:21:37.734Z,8.10
2022-08-14T08:22:43.389Z,7.50
2022-08-14T08:23:51.410Z,7.40
2022-08-14T08:24:50.970Z,7.50
2022-08-14T08:25:55.241Z,6.80
2022-08-14T08:26:59.618Z,6.80
2022-08-14T08:28:08.293Z,10.00
2022-08-14T08:29:08.383Z,7.20
2022-08-14T08:30:12.764Z,7.20
2022-08-14T08:31:17.125Z,8.60
2022-08-14T08:32:21.494Z,6.20
2022-08-14T08:33:25.867Z,6.80
2022-08-14T08:34:30.440Z,6.40
2022-08-14T08:35:46.848Z,7.80
2022-08-14T08:36:38.986Z,6.20
2022-08-14T08:37:43.787Z,6.10
2022-08-14T08:39:18.702Z,6.30
2022-08-14T08:40:01.415Z,8.00
2022-08-14T08:40:56.863Z,7.90
2022-08-14T08:42:01.177Z,6.90
2022-08-14T08:43:05.547Z,7.20
2022-08-14T08:44:17.318Z,5.80
2022-08-14T08:45:14.308Z,7.70
2022-08-14T08:46:23.387Z,6.80
2022-08-14T08:47:23.311Z,6.90
2022-08-14T08:48:31.600Z,6.20
2022-08-14T08:49:36.138Z,6.30
2022-08-14T08:51:43.123Z,8.60
2022-08-14T08:52:47.137Z,6.70
2022-08-14T08:53:51.572Z,5.80
2022-08-14T08:54:56.049Z,5.70
2022-08-14T08:56:00.491Z,6.80
2022-08-14T08:57:05.209Z,6.60
2022-08-14T08:58:12.701Z,6.40
2022-08-14T08:59:14.151Z,6.10
2022-08-14T09:00:24.282Z,5.90
2022-08-14T09:01:23.149Z,7.00
2022-08-14T09:02:27.927Z,6.70
2022-08-14T09:03:31.931Z,7.20
2022-08-14T09:04:36.413Z,6.40
2022-08-14T09:05:40.853Z,5.80
2022-08-14T09:07:00.946Z,7.60
2022-08-14T09:07:49.772Z,7.40
2022-08-14T09:08:54.254Z,5.70
2022-08-14T09:10:00.526Z,5.90
2022-08-14T09:11:18.437Z,7.00
2022-08-14T09:12:07.623Z,6.10
2022-08-14T09:13:12.073Z,5.40
2022-08-14T09:14:16.545Z,6.20
2022-08-14T09:15:20.994Z,5.90
2022-08-14T09:16:25.836Z,7.00
2022-08-14T09:17:29.921Z,9.00
2022-08-14T09:18:34.365Z,7.40
2022-08-14T09:19:38.842Z,6.90
2022-08-14T09:20:43.294Z,5.30
2022-08-14T09:21:47.745Z,7.00
2022-08-14T09:22:52.299Z,5.60
2022-08-14T09:24:28.504Z,5.20
2022-08-14T09:25:01.116Z,5.50
2022-08-14T09:26:20.980Z,5.40
2022-08-14T09:27:10.015Z,5.90
2022-08-14T09:28:14.476Z,5.20
2022-08-14T09:29:19.827Z,6.50
2022-08-14T09:30:32.692Z,4.90
2022-08-14T09:31:27.846Z,5.20
2022-08-14T09:32:58.821Z,5.70
2022-08-14T09:33:36.745Z,6.20
2022-08-14T09:34:58.512Z,5.00
2022-08-14T09:35:45.684Z,5.60
2022-08-14T09:36:50.144Z,5.00
2022-08-14T09:37:55.175Z,5.10
2022-08-14T09:38:59.050Z,5.90
2022-08-14T09:40:03.745Z,6.00
2022-08-14T09:41:07.948Z,5.00
2022-08-14T09:42:21.022Z,5.30
2022-08-14T09:43:22.337Z,4.90
2022-08-14T09:44:21.318Z,6.10
2022-08-14T09:45:25.769Z,5.10
2022-08-14T09:46:30.227Z,5.60
2022-08-14T09:47:34.669Z,7.20
2022-08-14T09:48:39.120Z,5.90
2022-08-14T09:49:43.603Z,5.70
2022-08-14T09:50:48.039Z,5.00
2022-08-14T09:51:58.807Z,5.30
2022-08-14T09:52:57.718Z,4.70
2022-08-14T09:54:18.533Z,6.90
2022-08-14T09:55:05.889Z,5.80
2022-08-14T09:56:10.341Z,5.60
2022-08-14T09:57:14.780Z,6.20
2022-08-14T09:58:22.584Z,5.60
2022-08-14T09:59:23.673Z,5.60
2022-08-14T10:00:30.244Z,5.00
2022-08-14T10:01:32.600Z,6.70
2022-08-14T10:02:37.108Z,4.90
2022-08-14T10:03:41.516Z,5.20
2022-08-14T10:04:50.143Z,5.50
2022-08-14T10:05:50.491Z,5.80
2022-08-14T10:06:54.903Z,4.90
2022-08-14T10:07:59.354Z,5.80
2022-08-14T10:09:04.177Z,6.30
2022-08-14T10:10:23.421Z,5.10
2022-08-14T10:11:12.735Z,4.80
2022-08-14T10:12:18.862Z,4.90
2022-08-14T10:13:21.621Z,6.00
2022-08-14T10:14:35.209Z,7.60
2022-08-14T10:15:30.543Z,6.90
2022-08-14T10:16:35.066Z,5.20
2022-08-14T10:17:39.806Z,4.70
2022-08-14T10:18:43.892Z,5.90
2022-08-14T10:19:48.381Z,7.20
2022-08-14T10:20:52.833Z,5.10
2022-08-14T10:21:58.574Z,5.00
2022-08-14T10:23:23.100Z,5.20
2022-08-14T10:24:06.172Z,5.10
2022-08-14T10:25:10.633Z,5.00
2022-08-14T10:26:22.676Z,5.80
2022-08-14T10:27:19.524Z,5.70
2022-08-14T10:28:57.471Z,5.10
2022-08-14T10:29:28.414Z,5.50
2022-08-14T10:30:33.166Z,4.90
2022-08-14T10:31:44.853Z,5.20
2022-08-14T10:32:51.642Z,5.00
2022-08-14T10:33:50.809Z,5.10
2022-08-14T10:34:52.750Z,5.70
2022-08-14T10:35:55.425Z,5.70
2022-08-14T10:37:02.494Z,6.00
2022-08-14T10:38:07.219Z,4.60
2022-08-14T10:39:08.808Z,5.20
2022-08-14T10:40:43.405Z,4.80
2022-08-14T10:41:17.837Z,5.30
2022-08-14T10:42:22.247Z,8.60
2022-08-14T10:43:26.761Z,6.00
2022-08-14T10:44:31.159Z,5.70
2022-08-14T10:45:42.067Z,4.80
2022-08-14T10:47:36.501Z,5.40
2022-08-14T10:48:07.526Z,4.80
2022-08-14T10:48:48.959Z,5.80
2022-08-14T10:49:53.409Z,6.10
2022-08-14T10:50:57.868Z,7.50
2022-08-14T10:52:02.310Z,5.20
2022-08-14T10:53:08.020Z,5.20
2022-08-14T10:54:26.297Z,6.10
2022-08-14T10:55:15.660Z,6.80
2022-08-14T10:56:21.933Z,6.70
2022-08-14T10:57:25.224Z,6.00
2022-08-14T10:58:29.013Z,5.70
2022-08-14T10:59:37.237Z,4.80
2022-08-14T11:00:37.941Z,6.20
2022-08-14T11:01:42.384Z,5.50
2022-08-14T11:02:54.637Z,5.40
2022-08-14T11:03:56.297Z,5.10
2022-08-14T11:04:59.304Z,5.10
2022-08-14T11:06:00.152Z,5.40
2022-08-14T11:07:05.849Z,4.80
2022-08-14T11:08:12.848Z,5.60
2022-08-14T11:09:13.489Z,5.80
2022-08-14T11:10:17.932Z,6.00
2022-08-14T11:11:22.391Z,5.30
2022-08-14T11:12:34.094Z,5.50
2022-08-14T11:13:31.274Z,5.20
2022-08-14T11:14:35.704Z,5.50
2022-08-14T11:15:40.998Z,5.30
2022-08-14T11:16:49.030Z,5.80
2022-08-14T11:17:49.052Z,6.10
2022-08-14T11:18:55.760Z,7.00
2022-08-14T11:19:57.934Z,5.70
2022-08-14T11:21:02.395Z,5.10
2022-08-14T11:22:06.832Z,5.00
2022-08-14T11:23:11.264Z,5.30
2022-08-14T11:24:54.118Z,5.30
2022-08-14T11:25:20.135Z,5.00
2022-08-14T11:26:24.612Z,4.90
2022-08-14T11:27:33.495Z,4.90
2022-08-14T11:28:46.882Z,7.00
2022-08-14T11:29:37.935Z,6.30
2022-08-14T11:30:50.981Z,4.90
2022-08-14T11:31:46.835Z,4.90
2022-08-14T11:32:51.274Z,4.60
2022-08-14T11:33:55.767Z,7.50
2022-08-14T11:35:00.205Z,4.80
2022-08-14T11:36:04.677Z,5.70
2022-08-14T11:37:23.548Z,6.60
2022-08-14T11:38:13.560Z,4.80
2022-08-14T11:39:18.050Z,5.10
2022-08-14T11:40:28.625Z,5.40
2022-08-14T11:41:26.927Z,4.70
2022-08-14T11:42:57.622Z,5.20
2022-08-14T11:43:35.818Z,4.60
2022-08-14T11:44:45.725Z,5.60
2022-08-14T11:45:44.730Z,5.30
2022-08-14T11:46:49.180Z,5.10
2022-08-14T11:48:13.555Z,5.20
2022-08-14T11:49:02.562Z,5.00
2022-08-14T11:50:02.502Z,6.10
2022-08-14T11:51:06.959Z,4.80
2022-08-14T11:52:11.408Z,5.00
2022-08-14T11:53:15.854Z,4.50
2022-08-14T11:54:20.352Z,5.10
2022-08-14T11:55:26.301Z,4.90
2022-08-14T11:56:29.663Z,5.20
2022-08-14T11:57:33.644Z,4.80
2022-08-14T11:58:38.100Z,5.30
2022-08-14T11:59:44.285Z,4.60
2022-08-14T12:00:46.981Z,4.70
2022-08-14T12:01:51.465Z,4.90
2022-08-14T12:03:02.555Z,5.50
2022-08-14T12:04:01.043Z,4.60
2022-08-14T12:05:04.930Z,5.00
2022-08-14T12:06:09.579Z,4.70
2022-08-14T12:07:13.721Z,5.10
2022-08-14T12:08:24.482Z,4.90
2022-08-14T12:09:22.611Z,5.20
2022-08-14T12:10:42.425Z,4.90
2022-08-14T12:11:31.516Z,4.90
2022-08-14T12:12:36.647Z,4.60
2022-08-14T12:13:44.291Z,4.60
2022-08-14T12:14:44.843Z,4.60
2022-08-14T12:15:49.298Z,4.90
2022-08-14T12:16:53.754Z,4.70
2022-08-14T12:17:58.203Z,4.80
2022-08-14T12:19:02.642Z,5.70
2022-08-14T12:20:07.098Z,5.40
2022-08-14T12:21:11.546Z,5.50
2022-08-14T12:22:29.397Z,5.20
2022-08-14T12:23:20.465Z,5.70
2022-08-14T12:24:36.145Z,6.70
2022-08-14T12:25:29.401Z,6.00
2022-08-14T12:26:40.747Z,4.40
2022-08-14T12:27:41.729Z,5.30
2022-08-14T12:29:00.493Z,4.90
2022-08-14T12:29:47.198Z,5.60
2022-08-14T12:30:53.542Z,5.20
2022-08-14T12:31:56.106Z,4.60
2022-08-14T12:33:00.554Z,4.20
2022-08-14T12:34:10.247Z,5.40
2022-08-14T12:35:10.660Z,4.90
2022-08-14T12:36:17.954Z,4.80
2022-08-14T12:37:18.624Z,4.50
2022-08-14T12:38:23.068Z,4.50
2022-08-14T12:39:27.530Z,5.00
2022-08-14T12:40:31.948Z,4.50
2022-08-14T12:41:37.226Z,4.50
2022-08-14T12:42:47.446Z,5.50
2022-08-14T12:43:45.350Z,4.20
2022-08-14T12:44:49.798Z,4.50
2022-08-14T12:45:54.250Z,5.40
2022-08-14T12:46:58.706Z,4.50
2022-08-14T12:48:21.279Z,5.20
2022-08-14T12:49:07.580Z,4.30
2022-08-14T12:50:12.016Z,5.80
2022-08-14T12:51:16.449Z,5.60
2022-08-14T12:52:20.900Z,4.40
2022-08-14T12:53:25.349Z,6.00
2022-08-14T12:54:32.361Z,4.10
2022-08-14T12:56:17.507Z,4.30
2022-08-14T12:56:38.921Z,5.80
2022-08-14T12:57:43.405Z,3.60
2022-08-14T12:58:51.946Z,4.70
2022-08-14T12:59:52.286Z,4.20
2022-08-14T13:01:16.148Z,6.20
2022-08-14T13:02:05.615Z,4.30
2022-08-14T13:03:05.628Z,4.00
2022-08-14T13:04:10.374Z,4.40
2022-08-14T13:05:14.742Z,5.50
2022-08-14T13:06:19.184Z,4.10
2022-08-14T13:07:24.093Z,3.90
2022-08-14T13:08:33.481Z,4.20
2022-08-14T13:09:36.483Z,3.90
2022-08-14T13:10:46.760Z,3.70
2022-08-14T13:11:41.426Z,4.40
2022-08-14T13:13:10.009Z,4.00
2022-08-14T13:13:50.214Z,4.60
2022-08-14T13:14:54.643Z,5.60
2022-08-14T13:15:59.056Z,7.80
2022-08-14T13:17:03.484Z,4.90
2022-08-14T13:18:07.918Z,4.50
2022-08-14T13:19:12.345Z,4.10
2022-08-14T13:20:23.419Z,3.50
2022-08-14T13:21:21.195Z,4.50
2022-08-14T13:22:32.129Z,4.10
2022-08-14T13:23:31.727Z,3.60
2022-08-14T13:24:34.475Z,4.40
2022-08-14T13:25:38.906Z,3.70
2022-08-14T13:26:43.317Z,4.40
2022-08-14T13:27:47.766Z,4.00
2022-08-14T13:29:02.423Z,3.70
2022-08-14T13:29:56.857Z,3.90
2022-08-14T13:31:01.277Z,3.80
2022-08-14T13:32:05.715Z,4.60
2022-08-14T13:33:15.036Z,4.80
2022-08-14T13:34:14.607Z,3.80
2022-08-14T13:35:19.027Z,4.50
2022-08-14T13:36:24.231Z,4.90
2022-08-14T13:37:27.897Z,3.50
2022-08-14T13:38:32.349Z,3.50
2022-08-14T13:39:37.522Z,4.70
2022-08-14T13:40:41.195Z,3.50
2022-08-14T13:41:45.618Z,3.90
2022-08-14T13:42:52.868Z,3.60
2022-08-14T13:43:59.643Z,5.10
2022-08-14T13:44:58.945Z,4.10
2022-08-14T13:46:03.372Z,4.40
2022-08-14T13:47:08.869Z,3.90
2022-08-14T13:48:27.351Z,5.10
2022-08-14T13:49:16.950Z,4.30
2022-08-14T13:50:21.381Z,3.60
2022-08-14T13:51:25.812Z,3.30
2022-08-14T13:52:52.287Z,4.30
2022-08-14T13:53:34.681Z,3.50
2022-08-14T13:54:39.103Z,3.50
2022-08-14T13:55:43.524Z,4.30
2022-08-14T13:56:47.932Z,3.60
2022-08-14T13:58:03.957Z,3.60
2022-08-14T13:58:56.805Z,3.70
2022-08-14T14:00:01.283Z,3.20
2022-08-14T14:01:05.660Z,3.40
2022-08-14T14:02:10.148Z,3.30
2022-08-14T14:03:14.523Z,4.50
2022-08-14T14:04:20.165Z,3.50
2022-08-14T14:05:23.363Z,3.10
2022-08-14T14:06:27.797Z,3.70
2022-08-14T14:07:32.364Z,3.60
2022-08-14T14:08:45.925Z,4.20
2022-08-14T14:09:52.538Z,3.70
2022-08-14T14:10:46.313Z,5.40
2022-08-14T14:11:52.966Z,4.40
2022-08-14T14:12:56.412Z,4.00
2022-08-14T14:13:59.855Z,3.30
2022-08-14T14:15:05.341Z,4.00
2022-08-14T14:16:08.696Z,3.40
2022-08-14T14:17:13.124Z,3.40
2022-08-14T14:18:34.549Z,3.40
2022-08-14T14:19:21.985Z,3.30
2022-08-14T14:20:35.126Z,3.30
2022-08-14T14:21:30.825Z,3.40
2022-08-14T14:23:00.971Z,3.30
2022-08-14T14:23:39.695Z,3.80
2022-08-14T14:24:44.124Z,4.20
2022-08-14T14:25:57.139Z,3.40
2022-08-14T14:26:52.976Z,4.10
2022-08-14T14:27:57.396Z,3.40
2022-08-14T14:29:01.837Z,3.20
2022-08-14T14:30:46.974Z,3.50
2022-08-14T14:31:10.968Z,3.70
2022-08-14T14:32:21.508Z,4.20
2022-08-14T14:33:44.441Z,3.90
2022-08-14T14:34:30.137Z,3.20